Time;durP1;ratioP1;P1;durP2;ratioP2;P2;SDS_P1;SDS_P2;PMS_P1;PMS_P2;Temp;Humidity;BMP_temperature;BMP_pressure;BME280_temperature;BME280_humidity;BME280_pressure;Samples;Min_cycle;Max_cycle;Signal;HPM_P1;HPM_P2
2022/10/02 00:01:10;;;;;;;23.42;14.02;;;13.20;99.90;;;;;;5013725;28;20069;-76
2022/10/02 00:03:42;;;;;;;26.90;16.73;;;13.10;99.90;;;;;;5033145;28;20110;-76
2022/10/02 00:06:15;;;;;;;24.00;14.80;;;13.00;99.90;;;;;;5023802;28;20056;-76
2022/10/02 00:08:43;;;;;;;31.40;15.77;;;12.90;99.90;;;;;;5029220;28;20488;-75
2022/10/02 00:11:16;;;;;;;24.73;16.95;;;12.80;99.90;;;;;;5037434;28;20037;-75
2022/10/02 00:13:46;;;;;;;25.38;15.55;;;12.80;99.90;;;;;;5052045;28;20045;-76
2022/10/02 00:16:24;;;;;;;29.48;17.58;;;12.70;99.90;;;;;;5036569;28;20049;-77
2022/10/02 00:18:55;;;;;;;101.45;22.08;;;12.70;99.90;;;;;;5037228;28;20045;-76
2022/10/02 00:21:36;;;;;;;107.78;19.63;;;12.80;99.90;;;;;;5037126;28;20103;-76
2022/10/02 00:24:06;;;;;;;97.80;18.65;;;12.80;99.90;;;;;;5018095;28;20108;-76
2022/10/02 00:26:39;;;;;;;107.75;19.38;;;12.80;99.90;;;;;;5036295;28;20068;-76
2022/10/02 00:29:24;;;;;;;59.83;18.05;;;12.80;99.90;;;;;;5035428;28;20112;-77
2022/10/02 00:32:01;;;;;;;88.97;19.30;;;12.80;99.90;;;;;;5036415;28;20073;-76
2022/10/02 00:34:37;;;;;;;76.35;18.77;;;12.80;99.90;;;;;;5049449;28;20049;-75
2022/10/02 00:37:12;;;;;;;51.72;17.75;;;12.80;99.90;;;;;;5023562;28;20088;-76
2022/10/02 00:39:50;;;;;;;54.63;17.65;;;12.80;99.90;;;;;;5035146;28;20111;-76
2022/10/02 00:42:49;;;;;;;46.78;16.95;;;12.80;99.90;;;;;;5033224;28;20496;-76
2022/10/02 00:45:36;;;;;;;43.47;16.85;;;12.80;99.90;;;;;;5035900;28;20485;-77
2022/10/02 00:48:16;;;;;;;40.45;16.35;;;12.80;99.90;;;;;;5017505;28;20053;-76
2022/10/02 00:50:52;;;;;;;37.05;16.83;;;12.80;99.90;;;;;;5036181;28;20072;-75
2022/10/02 00:53:31;;;;;;;35.20;14.40;;;12.80;99.90;;;;;;5034470;28;20052;-76
2022/10/02 00:56:08;;;;;;;29.42;13.63;;;12.70;99.90;;;;;;5028198;28;20049;-76
2022/10/02 00:58:55;;;;;;;26.90;12.80;;;12.70;99.90;;;;;;5034608;28;20124;-76
2022/10/02 01:01:29;;;;;;;30.48;12.63;;;12.70;99.90;;;;;;5035866;28;20128;-76
2022/10/02 01:03:57;;;;;;;34.78;13.27;;;12.60;99.90;;;;;;5035529;28;20042;-76
2022/10/02 01:06:28;;;;;;;29.90;12.52;;;12.60;99.90;;;;;;5034524;28;20053;-75
2022/10/02 01:08:56;;;;;;;26.95;12.23;;;12.60;99.90;;;;;;5035578;28;20068;-76
2022/10/02 01:11:25;;;;;;;19.95;12.68;;;12.50;99.90;;;;;;5035571;28;20060;-75
2022/10/02 01:13:53;;;;;;;17.63;10.45;;;12.50;99.90;;;;;;5033841;28;20068;-76
2022/10/02 01:16:20;;;;;;;17.60;9.65;;;12.40;99.90;;;;;;5033600;28;20501;-74
2022/10/02 01:18:47;;;;;;;15.18;9.70;;;12.30;99.90;;;;;;5035052;28;20064;-75
2022/10/02 01:21:19;;;;;;;13.45;8.77;;;12.20;99.90;;;;;;5032792;28;20106;-76
2022/10/02 01:23:52;;;;;;;31.52;10.23;;;12.10;99.90;;;;;;5028773;28;20543;-76
2022/10/02 01:26:21;;;;;;;63.92;9.50;;;12.10;99.90;;;;;;5033987;28;20476;-75
2022/10/02 01:28:50;;;;;;;47.67;10.75;;;12.00;99.90;;;;;;5028121;28;20393;-76
2022/10/02 01:31:17;;;;;;;34.95;12.98;;;11.90;99.90;;;;;;5033337;28;20034;-76
2022/10/02 01:33:48;;;;;;;33.30;12.32;;;12.00;99.90;;;;;;5034544;28;20128;-76
2022/10/02 01:36:17;;;;;;;54.95;12.85;;;12.10;99.90;;;;;;5035242;28;20128;-76
2022/10/02 01:38:45;;;;;;;23.40;12.90;;;12.00;99.90;;;;;;5033618;28;20091;-76
2022/10/02 01:41:13;;;;;;;31.50;13.48;;;12.00;99.90;;;;;;5016166;28;20095;-75
2022/10/02 01:43:45;;;;;;;29.23;12.90;;;12.10;99.90;;;;;;5014850;28;20103;-76
2022/10/02 01:46:31;;;;;;;28.05;13.77;;;12.10;99.90;;;;;;4997657;28;20079;-76
2022/10/02 01:49:11;;;;;;;26.65;12.00;;;12.10;99.90;;;;;;5016700;28;20046;-75
2022/10/02 01:51:52;;;;;;;21.33;11.63;;;12.10;99.90;;;;;;5034501;28;20037;-76
2022/10/02 01:54:29;;;;;;;31.77;11.82;;;12.10;99.90;;;;;;5034563;28;20075;-75
2022/10/02 01:57:07;;;;;;;26.73;12.43;;;12.10;99.90;;;;;;5016893;28;20041;-75
2022/10/02 01:59:53;;;;;;;21.52;12.20;;;12.10;99.90;;;;;;5015925;28;20045;-75
2022/10/02 02:02:26;;;;;;;20.40;11.77;;;12.10;99.90;;;;;;5017046;28;20052;-76
2022/10/02 02:04:58;;;;;;;19.17;11.13;;;12.10;99.90;;;;;;5016177;28;20064;-74
2022/10/02 02:07:34;;;;;;;18.48;11.20;;;12.10;99.90;;;;;;5016383;28;20041;-75
2022/10/02 02:10:13;;;;;;;35.78;11.80;;;12.10;99.90;;;;;;5016069;28;20052;-76
2022/10/02 02:12:43;;;;;;;20.58;10.50;;;12.10;99.90;;;;;;5016323;28;20045;-76
2022/10/02 02:15:20;;;;;;;24.60;11.85;;;12.10;99.90;;;;;;5038836;28;20064;-72
2022/10/02 02:17:52;;;;;;;40.55;10.48;;;12.10;99.90;;;;;;5044123;28;20049;-77
2022/10/02 02:20:26;;;;;;;20.83;10.40;;;12.00;99.90;;;;;;5032248;28;20045;-76
2022/10/02 02:22:55;;;;;;;37.63;11.35;;;12.00;99.90;;;;;;5025569;28;20087;-76
2022/10/02 02:25:27;;;;;;;17.60;10.57;;;12.00;99.90;;;;;;5030932;28;20038;-75
2022/10/02 02:27:59;;;;;;;19.45;11.02;;;11.90;99.90;;;;;;5028726;28;20041;-76
2022/10/02 02:30:32;;;;;;;18.50;10.75;;;11.90;99.90;;;;;;5016189;28;20041;-76
2022/10/02 02:33:05;;;;;;;17.25;10.43;;;12.00;99.90;;;;;;5026726;28;20509;-75
2022/10/02 02:35:36;;;;;;;14.98;9.85;;;12.00;99.90;;;;;;5019691;28;20049;-75
2022/10/02 02:38:08;;;;;;;16.23;9.70;;;12.00;99.90;;;;;;5042625;28;20045;-75
2022/10/02 02:40:40;;;;;;;15.63;9.35;;;12.00;99.90;;;;;;5042266;28;20072;-74
2022/10/02 02:43:11;;;;;;;15.95;9.52;;;12.00;99.90;;;;;;5028997;28;20559;-76
2022/10/02 02:45:46;;;;;;;12.50;8.23;;;12.20;99.90;;;;;;5035056;28;20095;-76
2022/10/02 02:48:21;;;;;;;13.07;8.20;;;12.20;99.90;;;;;;5035047;28;20048;-76
2022/10/02 02:50:53;;;;;;;12.82;8.05;;;12.20;99.90;;;;;;5036729;28;20405;-76
2022/10/02 02:53:25;;;;;;;10.23;7.88;;;12.30;99.90;;;;;;5033182;28;20440;-76
2022/10/02 02:55:57;;;;;;;10.90;6.57;;;12.30;99.90;;;;;;5017238;28;20053;-76
2022/10/02 02:58:28;;;;;;;11.07;6.90;;;12.30;99.90;;;;;;5034839;28;20048;-75
2022/10/02 03:00:57;;;;;;;13.57;6.68;;;12.20;99.90;;;;;;5017353;28;20042;-75
2022/10/02 03:03:25;;;;;;;11.13;6.50;;;12.30;99.90;;;;;;5017243;28;20427;-75
2022/10/02 03:05:59;;;;;;;12.48;6.43;;;12.30;99.90;;;;;;5002026;28;20049;-75
2022/10/02 03:08:30;;;;;;;8.70;6.20;;;12.20;99.90;;;;;;5025029;28;20033;-75
2022/10/02 03:11:08;;;;;;;10.05;6.82;;;12.20;99.90;;;;;;5016960;28;20584;-77
2022/10/02 03:13:50;;;;;;;12.95;8.10;;;12.10;99.90;;;;;;5016833;28;20049;-75
2022/10/02 03:16:29;;;;;;;14.18;9.27;;;12.00;99.90;;;;;;5018046;28;20487;-75
2022/10/02 03:19:15;;;;;;;14.50;8.45;;;11.90;99.90;;;;;;5034096;28;20120;-76
2022/10/02 03:21:51;;;;;;;13.30;8.30;;;11.90;99.90;;;;;;5021222;28;20069;-77
2022/10/02 03:24:23;;;;;;;13.25;8.20;;;11.90;99.90;;;;;;5036611;28;20050;-76
2022/10/02 03:26:58;;;;;;;10.55;8.20;;;11.90;99.90;;;;;;5028314;28;20060;-76
2022/10/02 03:29:30;;;;;;;15.20;7.63;;;12.00;99.90;;;;;;5034016;28;20038;-76
2022/10/02 03:32:00;;;;;;;12.65;7.53;;;12.00;99.90;;;;;;5033569;28;20041;-77
2022/10/02 03:34:28;;;;;;;11.52;7.70;;;12.10;99.90;;;;;;5016306;28;20057;-75
2022/10/02 03:36:56;;;;;;;12.05;6.97;;;12.10;99.90;;;;;;5016243;28;20050;-76
2022/10/02 03:39:23;;;;;;;9.75;6.38;;;12.20;99.90;;;;;;5024936;28;20037;-76
2022/10/02 03:41:50;;;;;;;9.70;6.45;;;12.20;99.90;;;;;;5024429;28;20475;-76
2022/10/02 03:44:18;;;;;;;11.45;7.13;;;12.10;99.90;;;;;;5034404;28;20090;-76
2022/10/02 03:46:45;;;;;;;11.98;6.43;;;12.10;99.90;;;;;;5029230;28;20042;-76
2022/10/02 03:49:14;;;;;;;15.15;7.40;;;12.10;99.90;;;;;;5036812;28;20095;-75
2022/10/02 03:51:41;;;;;;;11.88;6.57;;;12.00;99.90;;;;;;5024695;28;20507;-76
2022/10/02 03:54:15;;;;;;;15.27;7.50;;;12.10;99.90;;;;;;5057167;28;20041;-74
2022/10/02 03:56:49;;;;;;;11.80;6.45;;;12.10;99.90;;;;;;5050432;28;20053;-76
2022/10/02 03:59:33;;;;;;;13.18;6.78;;;12.10;99.90;;;;;;5052575;28;20065;-76
2022/10/02 04:02:03;;;;;;;13.73;7.07;;;12.10;99.90;;;;;;5032673;28;20084;-76
2022/10/02 04:04:41;;;;;;;13.43;7.20;;;12.10;99.90;;;;;;5042272;23;20119;-74
2022/10/02 04:07:15;;;;;;;12.63;6.68;;;12.10;99.90;;;;;;5052805;28;20094;-74
2022/10/02 04:09:47;;;;;;;15.25;8.00;;;12.10;99.90;;;;;;5036054;28;20057;-73
2022/10/02 04:12:19;;;;;;;11.90;7.18;;;12.10;99.90;;;;;;5038013;28;20046;-73
2022/10/02 04:14:53;;;;;;;11.35;6.38;;;12.10;99.90;;;;;;5037719;28;20046;-74
2022/10/02 04:17:26;;;;;;;16.08;11.48;;;12.10;99.90;;;;;;5046665;28;20087;-73
2022/10/02 04:19:59;;;;;;;21.65;18.70;;;12.10;99.90;;;;;;5056765;28;20040;-73
2022/10/02 04:22:37;;;;;;;21.38;15.88;;;12.20;99.90;;;;;;5055849;28;20056;-74
2022/10/02 04:25:10;;;;;;;18.55;7.78;;;12.20;99.90;;;;;;5037650;28;20099;-75
2022/10/02 04:27:42;;;;;;;12.68;7.20;;;12.30;99.90;;;;;;5048430;28;20580;-73
2022/10/02 04:30:14;;;;;;;11.45;6.60;;;12.30;99.90;;;;;;5037430;28;20045;-75
2022/10/02 04:32:41;;;;;;;11.07;6.10;;;12.30;99.90;;;;;;5037516;28;20052;-74
2022/10/02 04:35:16;;;;;;;11.68;6.55;;;12.30;99.90;;;;;;5037628;28;20052;-74
2022/10/02 04:38:09;;;;;;;11.57;6.07;;;12.30;99.90;;;;;;5053067;28;20048;-73
2022/10/02 04:40:55;;;;;;;12.45;6.63;;;12.40;99.90;;;;;;5036624;28;20053;-73
2022/10/02 04:43:37;;;;;;;11.43;6.03;;;12.40;99.90;;;;;;5042894;28;20049;-74
2022/10/02 04:46:18;;;;;;;12.82;6.47;;;12.50;99.90;;;;;;5034346;28;20045;-74
2022/10/02 04:49:02;;;;;;;10.63;6.25;;;12.50;99.90;;;;;;5048951;28;20091;-72
2022/10/02 04:51:48;;;;;;;11.52;6.72;;;12.50;99.90;;;;;;5038458;28;20063;-74
2022/10/02 04:54:41;;;;;;;11.95;6.55;;;12.40;99.90;;;;;;5040034;28;20049;-73
2022/10/02 04:57:25;;;;;;;13.15;7.00;;;12.30;99.90;;;;;;5052944;28;20128;-73
2022/10/02 05:00:04;;;;;;;19.20;10.93;;;12.20;99.90;;;;;;5022512;28;20095;-74
2022/10/02 05:02:39;;;;;;;18.27;9.80;;;12.20;99.90;;;;;;5044787;28;20053;-73
2022/10/02 05:05:21;;;;;;;18.35;7.60;;;12.20;99.90;;;;;;5048219;28;20049;-74
2022/10/02 05:08:11;;;;;;;10.90;7.53;;;12.20;99.90;;;;;;5052148;28;20045;-73
2022/10/02 05:11:03;;;;;;;16.63;6.93;;;12.10;99.90;;;;;;5056054;28;20479;-72
2022/10/02 05:13:56;;;;;;;12.38;7.25;;;12.10;99.90;;;;;;5054597;28;20040;-74
2022/10/02 05:16:40;;;;;;;14.52;7.53;;;12.10;99.90;;;;;;5053560;28;20128;-74
2022/10/02 05:19:29;;;;;;;15.95;7.32;;;12.10;99.90;;;;;;5054370;28;20049;-73
2022/10/02 05:22:10;;;;;;;13.82;6.97;;;12.10;99.90;;;;;;5035648;28;20131;-74
2022/10/02 05:25:00;;;;;;;12.48;7.07;;;12.10;99.90;;;;;;5035416;28;20072;-74
2022/10/02 05:27:49;;;;;;;11.40;6.85;;;12.10;99.90;;;;;;5031950;28;20374;-74
2022/10/02 05:30:18;;;;;;;14.65;7.53;;;12.10;99.90;;;;;;5042752;28;20038;-74
2022/10/02 05:33:17;;;;;;;15.32;6.38;;;12.10;99.90;;;;;;5047135;28;20044;-73
2022/10/02 05:36:19;;;;;;;12.35;7.43;;;12.10;99.90;;;;;;4991643;28;20053;-73
2022/10/02 05:39:01;;;;;;;11.95;6.95;;;12.20;99.90;;;;;;5026383;28;20052;-72
2022/10/02 05:41:40;;;;;;;14.93;7.85;;;12.30;99.90;;;;;;5045943;28;20033;-73
2022/10/02 05:44:15;;;;;;;13.40;7.78;;;12.30;99.90;;;;;;5036061;28;20120;-72
2022/10/02 05:46:46;;;;;;;14.30;8.20;;;12.40;99.90;;;;;;5035980;28;20091;-73
2022/10/02 05:49:18;;;;;;;19.10;8.02;;;12.50;99.90;;;;;;5044200;28;20128;-73
2022/10/02 05:51:54;;;;;;;12.98;8.20;;;12.70;99.90;;;;;;5021492;28;20049;-74
2022/10/02 05:54:30;;;;;;;17.63;9.35;;;12.80;99.90;;;;;;5037334;28;21818;-73
2022/10/02 05:57:07;;;;;;;15.95;10.15;;;12.90;99.90;;;;;;5052835;28;20175;-72
2022/10/02 05:59:43;;;;;;;16.13;11.13;;;13.20;99.90;;;;;;5030982;28;20067;-72
2022/10/02 06:02:20;;;;;;;15.73;10.73;;;13.40;99.90;;;;;;5048767;28;20044;-73
2022/10/02 06:04:56;;;;;;;17.55;10.23;;;13.50;99.90;;;;;;5023398;28;20089;-72
2022/10/02 06:07:26;;;;;;;15.25;9.43;;;13.60;99.90;;;;;;5050760;28;20507;-74
2022/10/02 06:10:01;;;;;;;13.75;8.18;;;13.60;99.90;;;;;;5042878;28;20416;-72
2022/10/02 06:12:38;;;;;;;13.75;7.63;;;13.60;99.90;;;;;;5025095;28;20443;-73
2022/10/02 06:15:14;;;;;;;14.63;7.32;;;13.60;99.90;;;;;;5041988;28;20566;-73
2022/10/02 06:17:46;;;;;;;13.02;7.28;;;13.60;99.90;;;;;;5034295;28;20045;-72
2022/10/02 06:20:21;;;;;;;15.32;7.90;;;13.60;99.90;;;;;;5016481;28;20095;-73
2022/10/02 06:22:55;;;;;;;10.65;7.78;;;13.70;99.90;;;;;;5016552;28;20455;-73
2022/10/02 06:25:26;;;;;;;14.88;8.38;;;13.80;99.90;;;;;;5031151;28;20041;-73
2022/10/02 06:27:59;;;;;;;11.52;7.70;;;14.00;99.90;;;;;;5043548;28;20038;-74
2022/10/02 06:30:30;;;;;;;10.38;6.63;;;14.20;99.90;;;;;;5041485;28;20045;-72
2022/10/02 06:33:03;;;;;;;13.07;8.10;;;14.40;99.90;;;;;;5057056;28;20041;-73
2022/10/02 06:35:50;;;;;;;13.63;6.93;;;14.60;99.90;;;;;;5039207;28;20037;-73
2022/10/02 06:38:30;;;;;;;10.13;6.70;;;14.70;99.90;;;;;;5058722;28;20122;-73
2022/10/02 06:41:07;;;;;;;12.57;8.02;;;15.00;99.90;;;;;;5040669;28;20052;-72
2022/10/02 06:43:55;;;;;;;14.05;6.55;;;15.30;99.90;;;;;;5056263;28;20099;-74
2022/10/02 06:46:31;;;;;;;13.95;6.47;;;15.70;99.90;;;;;;5052747;28;20041;-72
2022/10/02 06:49:04;;;;;;;9.52;5.90;;;16.00;99.90;;;;;;5049396;28;20102;-72
2022/10/02 06:51:48;;;;;;;32.92;8.98;;;16.30;99.90;;;;;;5045147;28;20063;-72
2022/10/02 06:54:42;;;;;;;11.00;5.85;;;16.60;99.90;;;;;;5057398;28;20051;-73
2022/10/02 06:57:32;;;;;;;13.35;6.25;;;16.50;99.90;;;;;;5051031;28;20042;-72
2022/10/02 07:00:10;;;;;;;10.82;5.50;;;16.50;99.90;;;;;;5052972;28;20131;-72
2022/10/02 07:03:15;;;;;;;13.85;7.05;;;16.50;99.90;;;;;;5057720;28;20079;-72
2022/10/02 07:06:06;;;;;;;21.63;10.90;;;16.50;99.90;;;;;;5037645;28;20052;-72
2022/10/02 07:08:49;;;;;;;9.23;5.78;;;16.60;99.90;;;;;;5043988;28;20389;-72
2022/10/02 07:11:23;;;;;;;13.63;5.63;;;16.90;99.90;;;;;;5055676;28;20041;-73
2022/10/02 07:14:13;;;;;;;10.48;5.90;;;17.00;99.90;;;;;;5052125;28;20043;-72
2022/10/02 07:17:05;;;;;;;11.43;5.78;;;17.20;99.90;;;;;;5033634;28;20052;-86
2022/10/02 07:20:18;;;;;;;14.90;5.85;;;17.30;99.90;;;;;;5050824;28;20489;-76
2022/10/02 07:23:12;;;;;;;10.95;5.60;;;17.50;99.90;;;;;;5007189;28;20143;-67
2022/10/02 07:25:54;;;;;;;15.27;5.95;;;17.50;99.90;;;;;;5054503;28;20123;-66
2022/10/02 07:28:28;;;;;;;18.02;6.18;;;17.70;99.90;;;;;;5049351;28;20040;-69
2022/10/02 07:31:04;;;;;;;18.70;7.13;;;17.80;99.90;;;;;;5062655;28;20064;-73
2022/10/02 07:33:47;;;;;;;18.83;6.97;;;17.90;99.90;;;;;;5043870;28;20053;-73
2022/10/02 07:36:27;;;;;;;21.98;6.32;;;18.00;99.90;;;;;;5036454;28;20416;-71
2022/10/02 07:39:05;;;;;;;19.02;7.03;;;18.20;99.90;;;;;;5037823;28;20049;-70
2022/10/02 07:41:49;;;;;;;29.08;13.88;;;18.40;99.90;;;;;;5018902;28;20049;-66
2022/10/02 07:44:30;;;;;;;23.55;10.65;;;18.50;99.90;;;;;;5038679;28;20050;-66
2022/10/02 07:47:07;;;;;;;22.05;8.07;;;18.60;99.90;;;;;;5021772;28;20111;-66
2022/10/02 07:49:47;;;;;;;28.35;8.63;;;18.40;99.90;;;;;;5036742;28;20072;-69
2022/10/02 07:52:25;;;;;;;19.60;8.38;;;18.50;99.90;;;;;;5036955;28;20095;-68
2022/10/02 07:55:06;;;;;;;13.93;6.22;;;18.40;99.90;;;;;;5017782;28;20618;-69
2022/10/02 07:57:40;;;;;;;25.33;9.00;;;18.30;99.90;;;;;;5036638;28;20128;-68
2022/10/02 08:00:13;;;;;;;27.20;8.85;;;18.30;99.90;;;;;;5018760;28;20049;-67
2022/10/02 08:02:51;;;;;;;26.35;8.65;;;18.30;99.90;;;;;;5036718;28;20038;-70
2022/10/02 08:05:24;;;;;;;23.75;7.30;;;18.50;99.90;;;;;;5037173;28;20053;-69
2022/10/02 08:07:55;;;;;;;25.90;9.70;;;18.70;99.90;;;;;;5051671;28;20409;-68
2022/10/02 08:10:27;;;;;;;26.45;8.63;;;18.90;99.90;;;;;;5058666;28;20496;-71
2022/10/02 08:13:00;;;;;;;22.52;7.05;;;19.10;99.90;;;;;;5055400;28;20468;-71
2022/10/02 08:15:32;;;;;;;15.52;7.88;;;19.30;99.90;;;;;;5054477;28;20128;-70
2022/10/02 08:18:05;;;;;;;21.38;6.30;;;19.50;99.90;;;;;;5038201;28;20059;-70
2022/10/02 08:20:38;;;;;;;24.83;8.68;;;19.60;99.90;;;;;;5050808;28;20048;-71
2022/10/02 08:23:13;;;;;;;19.63;6.50;;;19.60;99.90;;;;;;5042255;28;20068;-71
2022/10/02 08:25:46;;;;;;;15.48;5.53;;;19.60;99.90;;;;;;5041753;28;20385;-69
2022/10/02 08:28:21;;;;;;;13.32;6.03;;;19.50;99.90;;;;;;5053591;28;20044;-70
2022/10/02 08:30:49;;;;;;;11.02;5.40;;;19.70;99.90;;;;;;5045822;28;20045;-70
2022/10/02 08:33:20;;;;;;;10.23;3.67;;;19.70;99.90;;;;;;5055083;28;20451;-71
2022/10/02 08:36:10;;;;;;;15.82;6.03;;;19.50;99.90;;;;;;5050989;28;20447;-71
2022/10/02 08:38:45;;;;;;;13.77;5.07;;;19.60;99.90;;;;;;5038685;28;20057;-70
2022/10/02 08:42:03;;;;;;;15.00;7.82;;;19.50;99.90;;;;;;5037356;28;20041;-70
2022/10/02 08:44:46;;;;;;;;;;;19.70;99.90;;;;;;5018899;28;20429;-70
2022/10/02 08:47:42;;;;;;;18.00;8.35;;;19.80;99.90;;;;;;5046986;28;19921;-70
2022/10/02 08:50:44;;;;;;;18.13;7.65;;;19.90;99.90;;;;;;5037572;28;20049;-70
2022/10/02 08:53:56;;;;;;;18.35;8.00;;;19.90;99.90;;;;;;5054796;28;20079;-71
2022/10/02 08:56:40;;;;;;;13.23;7.05;;;20.00;99.90;;;;;;5049429;28;20084;-70
2022/10/02 08:59:41;;;;;;;18.10;6.60;;;20.00;99.90;;;;;;5054914;28;20045;-71
2022/10/02 09:02:52;;;;;;;18.75;7.38;;;19.90;99.90;;;;;;5054572;28;20045;-71
2022/10/02 09:05:57;;;;;;;15.75;7.15;;;19.90;99.90;;;;;;5055078;28;20049;-70
2022/10/02 09:09:09;;;;;;;18.45;7.55;;;19.80;99.90;;;;;;5046840;28;20038;-70
2022/10/02 09:12:05;;;;;;;18.35;10.60;;;19.90;99.90;;;;;;5051884;28;20420;-71
2022/10/02 09:14:50;;;;;;;11.97;7.70;;;20.10;99.90;;;;;;5035370;28;20044;-69
2022/10/02 09:17:46;;;;;;;16.85;8.88;;;20.10;99.90;;;;;;5035295;28;20068;-71
2022/10/02 09:20:53;;;;;;;14.93;7.47;;;20.20;99.90;;;;;;5015209;28;20049;-70
2022/10/02 09:24:04;;;;;;;22.42;13.02;;;20.20;99.90;;;;;;5017802;28;20092;-70
2022/10/02 09:26:59;;;;;;;12.13;6.30;;;20.40;99.90;;;;;;5035703;28;20041;-70
2022/10/02 09:30:03;;;;;;;11.95;6.60;;;20.40;99.90;;;;;;5035573;28;20049;-71
2022/10/02 09:33:22;;;;;;;14.32;6.70;;;20.50;99.90;;;;;;5020496;28;20049;-70
2022/10/02 09:36:05;;;;;;;7.82;4.93;;;20.40;99.90;;;;;;5021276;28;20056;-70
2022/10/02 09:39:15;;;;;;;11.02;5.03;;;20.30;99.90;;;;;;5021049;28;20049;-70
2022/10/02 09:42:25;;;;;;;8.70;5.40;;;20.40;99.90;;;;;;4940599;29;20044;-70
2022/10/02 09:45:35;;;;;;;11.75;7.82;;;20.30;99.90;;;;;;5032703;28;20186;-71
2022/10/02 09:48:39;;;;;;;14.05;6.53;;;20.40;99.90;;;;;;5021665;28;20056;-70
2022/10/02 09:51:35;;;;;;;20.33;11.25;;;20.70;99.90;;;;;;5018516;28;20049;-72
2022/10/02 09:54:44;;;;;;;11.15;6.53;;;20.90;99.90;;;;;;5017080;28;20049;-71
2022/10/02 09:58:01;;;;;;;15.60;8.70;;;20.90;99.90;;;;;;5090884;27;20422;-70
2022/10/02 10:01:09;;;;;;;14.23;7.47;;;21.20;99.90;;;;;;5013582;28;20417;-69
2022/10/02 10:04:11;;;;;;;11.20;5.93;;;21.50;99.90;;;;;;5089163;28;20043;-70
2022/10/02 10:07:15;;;;;;;12.10;6.13;;;21.40;99.90;;;;;;5062184;28;20041;-70
2022/10/02 10:10:18;;;;;;;11.60;7.20;;;21.50;99.90;;;;;;5062608;28;20102;-68
2022/10/02 10:13:45;;;;;;;12.93;7.43;;;21.80;99.90;;;;;;5069787;28;20040;-68
2022/10/02 10:16:43;;;;;;;16.13;7.60;;;22.20;99.90;;;;;;5028036;28;20419;-68
2022/10/02 10:19:37;;;;;;;12.00;5.60;;;22.30;99.90;;;;;;5068634;28;20339;-68
2022/10/02 10:22:25;;;;;;;9.02;5.57;;;22.10;99.90;;;;;;5068374;28;20126;-67
2022/10/02 10:25:27;;;;;;;9.93;4.68;;;21.90;99.90;;;;;;5068494;28;20491;-68
2022/10/02 10:28:37;;;;;;;9.40;5.65;;;21.90;99.90;;;;;;5069694;28;20072;-68
2022/10/02 10:31:47;;;;;;;9.00;5.03;;;22.10;99.90;;;;;;5069048;28;20049;-67
2022/10/02 10:35:06;;;;;;;5.13;3.90;;;22.20;99.90;;;;;;5069425;28;20041;-69
2022/10/02 10:41:20;;;;;;;18.50;5.32;;;22.40;99.90;;;;;;5067515;28;20080;-69
2022/10/02 10:44:16;;;;;;;10.18;6.05;;;22.40;99.90;;;;;;5068747;28;20057;-70
2022/10/02 10:46:59;;;;;;;9.75;4.53;;;22.40;99.90;;;;;;5069620;28;20044;-68
2022/10/02 10:50:15;;;;;;;11.20;6.53;;;22.50;99.90;;;;;;5070388;28;20542;-68
2022/10/02 10:53:07;;;;;;;6.18;3.58;;;22.50;99.90;;;;;;5027844;28;20103;-68
2022/10/02 10:55:50;;;;;;;9.70;4.22;;;22.40;99.90;;;;;;5065795;28;20057;-69
2022/10/02 10:58:25;;;;;;;5.47;3.60;;;22.20;99.90;;;;;;5068855;28;20040;-68
2022/10/02 11:01:06;;;;;;;6.10;3.20;;;22.00;99.90;;;;;;5068828;28;20846;-69
2022/10/02 11:04:05;;;;;;;8.50;4.75;;;21.80;99.90;;;;;;5068771;28;20111;-68
2022/10/02 11:07:06;;;;;;;5.68;3.03;;;21.80;99.90;;;;;;5042028;28;20044;-68
2022/10/02 11:09:58;;;;;;;6.32;2.88;;;21.60;99.90;;;;;;5054775;28;20051;-68
2022/10/02 11:12:59;;;;;;;6.75;3.15;;;21.50;99.90;;;;;;5052582;28;20464;-68
2022/10/02 11:16:09;;;;;;;10.40;4.10;;;21.40;99.90;;;;;;5056052;28;20045;-68
2022/10/02 11:19:07;;;;;;;6.32;3.15;;;21.40;99.90;;;;;;5047436;28;20060;-67
2022/10/02 11:22:15;;;;;;;10.63;3.60;;;21.50;99.90;;;;;;5050887;28;20053;-69
2022/10/02 11:25:21;;;;;;;5.55;3.40;;;21.50;99.90;;;;;;5034534;28;20119;-69
2022/10/02 11:28:10;;;;;;;9.95;5.85;;;21.60;99.90;;;;;;4995800;28;20054;-69
2022/10/02 11:30:52;;;;;;;8.30;3.85;;;21.60;99.90;;;;;;5054872;28;20053;-68
2022/10/02 11:33:47;;;;;;;6.20;2.95;;;21.60;99.90;;;;;;5055904;28;20041;-67
2022/10/02 11:36:41;;;;;;;6.50;3.05;;;21.60;99.90;;;;;;5037277;28;20124;-69
2022/10/02 11:39:20;;;;;;;8.38;4.78;;;21.60;99.90;;;;;;5053978;28;20068;-68
2022/10/02 11:42:35;;;;;;;7.30;3.55;;;21.80;99.90;;;;;;5054606;28;20037;-69
2022/10/02 11:45:38;;;;;;;5.97;4.15;;;22.10;99.90;;;;;;5026974;28;20060;-69
2022/10/02 11:48:32;;;;;;;7.43;3.92;;;22.30;99.90;;;;;;5052735;28;20041;-68
2022/10/02 11:51:25;;;;;;;8.45;2.70;;;22.40;99.90;;;;;;5054528;28;20568;-68
2022/10/02 11:54:14;;;;;;;5.05;2.63;;;22.30;99.90;;;;;;5054044;28;20044;-69
2022/10/02 11:57:00;;;;;;;7.72;4.35;;;22.10;99.50;;;;;;5050048;28;20049;-69
2022/10/02 12:00:04;;;;;;;4.65;2.25;;;22.10;99.90;;;;;;5054981;28;20033;-69
2022/10/02 12:02:48;;;;;;;6.93;3.55;;;21.90;98.80;;;;;;5026578;28;20185;-68
2022/10/02 12:05:29;;;;;;;9.35;3.83;;;21.90;98.50;;;;;;5053523;28;20045;-69
2022/10/02 12:08:03;;;;;;;8.82;4.40;;;22.00;98.80;;;;;;5043291;28;20033;-69
2022/10/02 12:10:43;;;;;;;15.43;4.82;;;21.90;99.90;;;;;;5037360;28;20096;-68
2022/10/02 12:13:59;;;;;;;38.42;5.10;;;21.90;99.90;;;;;;5047864;28;20052;-69
2022/10/02 12:16:47;;;;;;;15.70;3.97;;;22.00;99.90;;;;;;5035483;28;20096;-68
2022/10/02 12:19:30;;;;;;;14.68;5.18;;;22.10;99.70;;;;;;5056892;28;20128;-67
2022/10/02 12:28:09;;;;;;;4.38;2.83;;;22.10;97.20;;;;;;5065276;28;20114;-71
2022/10/02 12:30:41;;;;;;;9.73;3.38;;;22.00;95.80;;;;;;5056995;28;20094;-67
2022/10/02 12:33:25;;;;;;;3.47;2.38;;;22.00;96.80;;;;;;5053935;28;20051;-68
2022/10/02 12:36:25;;;;;;;6.85;3.60;;;22.00;96.70;;;;;;5052810;28;20045;-68
2022/10/02 12:39:05;;;;;;;13.10;7.75;;;22.10;97.10;;;;;;5020440;28;20578;-71
2022/10/02 12:41:51;;;;;;;10.55;6.80;;;22.10;98.30;;;;;;5052494;28;20041;-68
2022/10/02 12:44:43;;;;;;;7.38;4.68;;;22.20;99.00;;;;;;5053212;28;20041;-67
2022/10/02 12:47:34;;;;;;;10.23;3.75;;;22.00;98.10;;;;;;5050762;28;20041;-69
2022/10/02 12:50:15;;;;;;;8.10;4.47;;;21.90;98.10;;;;;;5042556;28;20045;-68
2022/10/02 12:53:28;;;;;;;5.47;3.88;;;21.80;98.50;;;;;;5033432;28;20586;-67
2022/10/02 12:56:13;;;;;;;6.80;4.43;;;22.00;98.60;;;;;;5047072;28;20064;-67
2022/10/02 12:58:50;;;;;;;6.43;4.22;;;22.10;98.70;;;;;;5053162;28;20445;-68
2022/10/02 13:01:43;;;;;;;8.80;4.35;;;22.20;98.10;;;;;;5053318;28;20045;-69
2022/10/02 13:04:56;;;;;;;10.25;4.55;;;22.10;97.30;;;;;;5051809;28;20151;-68
2022/10/02 13:07:54;;;;;;;14.98;7.57;;;22.30;97.40;;;;;;5046190;28;20041;-68
2022/10/02 13:10:25;;;;;;;9.18;4.55;;;22.40;95.80;;;;;;5052121;28;20055;-69
2022/10/02 13:13:10;;;;;;;7.97;3.00;;;22.40;94.70;;;;;;5051136;28;20407;-68
2022/10/02 13:15:46;;;;;;;11.60;4.68;;;22.50;94.10;;;;;;5033742;28;20137;-69
2022/10/02 13:18:42;;;;;;;8.27;4.13;;;22.40;93.80;;;;;;5033694;28;20125;-69
2022/10/02 13:21:16;;;;;;;11.73;5.57;;;22.50;93.50;;;;;;5050478;28;20049;-67
2022/10/02 13:23:50;;;;;;;8.82;3.75;;;22.40;93.10;;;;;;5052995;28;20120;-68
2022/10/02 13:26:28;;;;;;;9.65;5.60;;;22.30;93.00;;;;;;5051577;28;20472;-68
2022/10/02 13:29:15;;;;;;;5.25;3.25;;;22.30;92.70;;;;;;5053072;28;20048;-69
2022/10/02 13:31:55;;;;;;;9.63;4.95;;;22.10;92.90;;;;;;5051735;28;20043;-68
2022/10/02 13:34:38;;;;;;;9.18;4.88;;;22.10;93.00;;;;;;5052397;28;20083;-69
2022/10/02 13:37:15;;;;;;;9.95;5.30;;;22.10;92.60;;;;;;5042683;28;20037;-69
2022/10/02 13:40:00;;;;;;;11.65;6.60;;;22.10;92.40;;;;;;5051770;28;20043;-68
2022/10/02 13:42:41;;;;;;;9.70;3.20;;;22.10;92.00;;;;;;5049623;28;20470;-69
2022/10/02 13:45:16;;;;;;;6.13;2.90;;;21.90;90.00;;;;;;5052215;28;20098;-69
2022/10/02 13:47:55;;;;;;;8.60;5.15;;;21.90;88.90;;;;;;5052170;28;20140;-68
2022/10/02 13:50:37;;;;;;;9.57;4.22;;;21.90;90.10;;;;;;5052596;28;20067;-68
2022/10/02 13:53:39;;;;;;;4.90;2.67;;;21.90;90.00;;;;;;5053429;28;20519;-68
2022/10/02 13:56:20;;;;;;;7.90;3.28;;;21.80;89.80;;;;;;5046648;28;20041;-68
2022/10/02 13:59:16;;;;;;;7.38;2.80;;;21.90;88.70;;;;;;5032952;28;20129;-69
2022/10/02 14:01:56;;;;;;;6.20;3.22;;;21.90;87.50;;;;;;5044412;28;20451;-67
2022/10/02 14:04:37;;;;;;;8.13;4.13;;;21.90;86.50;;;;;;5052791;28;20041;-68
2022/10/02 14:07:18;;;;;;;6.05;3.50;;;21.80;87.30;;;;;;5045178;28;20045;-68